Time;durP1;ratioP1;P1;durP2;ratioP2;P2;SDS_P1;SDS_P2;PMS_P1;PMS_P2;Temp;Humidity;BMP_temperature;BMP_pressure;BME280_temperature;BME280_humidity;BME280_pressure;Samples;Min_cycle;Max_cycle;Signal;HPM_P1;HPM_P2
2022/09/22 00:02:01;;;;;;;0.68;0.50;;;8.00;99.90;;;;;;5082657;28;20043;-78
2022/09/22 00:04:27;;;;;;;0.75;0.60;;;8.10;99.90;;;;;;5068251;28;20044;-78
2022/09/22 00:06:55;;;;;;;0.93;0.70;;;8.10;99.90;;;;;;5052762;28;20044;-78
2022/09/22 00:09:21;;;;;;;0.98;0.73;;;8.20;99.90;;;;;;5074570;28;20044;-78
2022/09/22 00:11:50;;;;;;;0.98;0.75;;;8.20;99.90;;;;;;5060141;28;20044;-78
2022/09/22 00:14:26;;;;;;;1.02;0.80;;;8.30;99.90;;;;;;5082710;28;20047;-78
2022/09/22 00:16:55;;;;;;;1.38;0.90;;;8.30;99.90;;;;;;5067690;28;20151;-78
2022/09/22 00:19:24;;;;;;;0.80;0.70;;;8.10;99.90;;;;;;5073642;28;20047;-78
2022/09/22 00:21:51;;;;;;;1.15;0.90;;;8.30;99.90;;;;;;5103384;28;20047;-78
2022/09/22 00:24:18;;;;;;;;;;;8.10;99.90;;;;;;5082006;28;20123;-78
2022/09/22 00:26:44;;;;;;;1.20;0.90;;;8.20;99.90;;;;;;5084694;28;20309;-78
2022/09/22 00:29:12;;;;;;;1.90;1.25;;;8.20;99.90;;;;;;5079742;28;20044;-78
2022/09/22 00:31:40;;;;;;;1.33;1.10;;;8.20;99.90;;;;;;5079182;28;20044;-78
2022/09/22 00:34:07;;;;;;;1.55;0.98;;;8.10;99.90;;;;;;5057245;28;20044;-78
2022/09/22 00:36:33;;;;;;;1.42;1.10;;;8.10;99.90;;;;;;5071410;28;20047;-77
2022/09/22 00:38:59;;;;;;;1.15;0.88;;;8.00;99.90;;;;;;5071138;28;20427;-77
2022/09/22 00:41:28;;;;;;;1.70;1.17;;;7.90;99.90;;;;;;5089334;28;20040;-78
2022/09/22 00:44:25;;;;;;;1.20;0.90;;;7.90;99.90;;;;;;5087406;28;20119;-78
2022/09/22 00:46:59;;;;;;;1.23;0.90;;;7.90;99.90;;;;;;5060153;28;20040;-77
2022/09/22 00:50:11;;;;;;;1.10;1.00;;;7.80;99.90;;;;;;5088559;28;20044;-78
2022/09/22 00:52:58;;;;;;;1.10;0.98;;;7.80;99.90;;;;;;5082686;28;20063;-78
2022/09/22 00:55:30;;;;;;;1.88;0.93;;;7.80;99.90;;;;;;5077517;28;20055;-78
2022/09/22 00:58:00;;;;;;;1.63;1.00;;;7.70;99.90;;;;;;5080348;28;20048;-78
2022/09/22 01:00:25;;;;;;;1.17;1.00;;;7.60;99.90;;;;;;5079932;28;20047;-78
2022/09/22 01:02:55;;;;;;;1.85;0.90;;;7.60;99.90;;;;;;5069320;28;20041;-78
2022/09/22 01:05:23;;;;;;;1.00;0.80;;;7.60;99.90;;;;;;5073764;28;20625;-78
2022/09/22 01:07:49;;;;;;;1.02;0.80;;;7.50;99.90;;;;;;5073512;28;20056;-78
2022/09/22 01:10:15;;;;;;;1.13;0.70;;;7.50;99.90;;;;;;5067900;28;20056;-78
2022/09/22 01:12:54;;;;;;;1.00;0.75;;;7.40;99.90;;;;;;5078104;28;20181;-79
2022/09/22 01:15:37;;;;;;;1.15;0.90;;;7.40;99.90;;;;;;5071445;28;20377;-78
2022/09/22 01:18:19;;;;;;;1.10;0.80;;;7.30;99.90;;;;;;5069482;28;20036;-77
2022/09/22 01:20:48;;;;;;;1.38;0.90;;;7.40;99.90;;;;;;5084128;28;20111;-77
2022/09/22 01:23:52;;;;;;;0.82;0.77;;;7.20;99.90;;;;;;5084206;28;20111;-78
2022/09/22 01:26:33;;;;;;;1.02;0.82;;;7.30;99.90;;;;;;5085810;28;20075;-77
2022/09/22 01:29:27;;;;;;;1.08;0.80;;;7.30;99.90;;;;;;5078039;28;20048;-77
2022/09/22 01:32:00;;;;;;;0.90;0.75;;;7.30;99.90;;;;;;5034742;28;20099;-77
2022/09/22 01:34:30;;;;;;;0.90;0.70;;;7.30;99.90;;;;;;5053122;28;20047;-78
2022/09/22 01:37:11;;;;;;;0.77;0.70;;;7.10;99.90;;;;;;5063731;28;20377;-77
2022/09/22 01:40:07;;;;;;;0.90;0.75;;;7.10;99.90;;;;;;5088122;28;20044;-78
2022/09/22 01:42:44;;;;;;;0.98;0.77;;;7.00;99.90;;;;;;5062681;28;20119;-78
2022/09/22 01:45:16;;;;;;;0.90;0.77;;;7.00;99.90;;;;;;5070539;28;20567;-78
2022/09/22 01:48:12;;;;;;;0.60;0.60;;;7.10;99.90;;;;;;5079860;28;20501;-78
2022/09/22 01:50:43;;;;;;;1.48;0.82;;;7.00;99.90;;;;;;5064199;28;20054;-78
2022/09/22 01:53:15;;;;;;;0.80;0.70;;;7.00;99.90;;;;;;5082994;28;20048;-78
2022/09/22 01:55:46;;;;;;;0.70;0.60;;;7.00;99.90;;;;;;5078382;28;20519;-78
2022/09/22 01:58:19;;;;;;;0.88;0.70;;;6.90;99.90;;;;;;5080420;28;20364;-79
2022/09/22 02:00:52;;;;;;;0.93;0.75;;;7.10;99.90;;;;;;5081253;28;20051;-79
2022/09/22 02:03:25;;;;;;;0.80;0.60;;;6.90;99.90;;;;;;5070079;28;20044;-79
2022/09/22 02:05:58;;;;;;;0.98;0.70;;;7.00;99.90;;;;;;5081922;28;20048;-79
2022/09/22 02:08:35;;;;;;;0.68;0.60;;;6.90;99.90;;;;;;5077852;28;20075;-79
2022/09/22 02:11:08;;;;;;;0.60;0.60;;;7.10;99.90;;;;;;5073538;28;20373;-79
2022/09/22 02:13:35;;;;;;;0.75;0.75;;;6.90;99.90;;;;;;5086789;28;20051;-79
2022/09/22 02:16:02;;;;;;;0.85;0.73;;;6.80;99.90;;;;;;5084569;28;20047;-78
2022/09/22 02:18:41;;;;;;;1.02;0.60;;;7.00;99.90;;;;;;5073859;28;21105;-79
2022/09/22 02:21:08;;;;;;;1.00;0.70;;;6.90;99.90;;;;;;5081798;28;20506;-79
2022/09/22 02:23:34;;;;;;;0.93;0.80;;;6.90;99.90;;;;;;5075499;28;20048;-79
2022/09/22 02:26:03;;;;;;;1.00;0.70;;;6.90;99.90;;;;;;5055586;28;20053;-77
2022/09/22 02:28:31;;;;;;;0.93;0.70;;;6.90;99.90;;;;;;5088007;28;20051;-78
2022/09/22 02:31:00;;;;;;;0.80;0.60;;;6.90;99.90;;;;;;5070954;28;20044;-78
2022/09/22 02:33:28;;;;;;;0.82;0.75;;;6.90;99.90;;;;;;5070177;28;20051;-77
2022/09/22 02:36:21;;;;;;;0.77;0.60;;;6.80;99.90;;;;;;5084349;28;20109;-77
2022/09/22 02:39:00;;;;;;;0.60;0.50;;;6.80;99.90;;;;;;5062698;28;20127;-79
2022/09/22 02:41:35;;;;;;;0.73;0.60;;;6.70;99.90;;;;;;5089146;28;20076;-77
2022/09/22 02:44:31;;;;;;;0.52;0.52;;;6.70;99.90;;;;;;5089929;28;20040;-78
2022/09/22 02:47:26;;;;;;;1.30;0.60;;;6.70;99.90;;;;;;5087319;28;20044;-77
2022/09/22 02:49:54;;;;;;;0.75;0.70;;;6.70;99.90;;;;;;5075600;28;20051;-78
2022/09/22 02:52:22;;;;;;;0.82;0.60;;;6.80;99.90;;;;;;5081767;28;20073;-78
2022/09/22 02:54:49;;;;;;;0.60;0.50;;;6.70;99.90;;;;;;5069326;28;20059;-77
2022/09/22 02:57:14;;;;;;;0.75;0.65;;;6.60;99.90;;;;;;5052839;28;20053;-77
2022/09/22 02:59:40;;;;;;;0.93;0.60;;;6.60;99.90;;;;;;5077230;28;20044;-71
2022/09/22 03:02:06;;;;;;;0.80;0.63;;;6.70;99.90;;;;;;5068285;28;20042;-72
2022/09/22 03:04:32;;;;;;;0.73;0.60;;;6.60;99.90;;;;;;5068928;28;20044;-72
2022/09/22 03:06:58;;;;;;;1.30;0.50;;;6.70;99.90;;;;;;5071884;28;20123;-72
2022/09/22 03:09:23;;;;;;;0.65;0.52;;;6.60;99.90;;;;;;5073172;28;20144;-72
2022/09/22 03:11:49;;;;;;;0.88;0.70;;;6.60;99.90;;;;;;5052154;28;20049;-72
2022/09/22 03:14:15;;;;;;;0.63;0.60;;;6.60;99.90;;;;;;5062791;28;20046;-72
2022/09/22 03:16:40;;;;;;;0.55;0.50;;;6.60;99.90;;;;;;5023427;28;20124;-72
2022/09/22 03:19:06;;;;;;;0.45;0.40;;;6.50;99.90;;;;;;5077201;28;20037;-72
2022/09/22 03:21:32;;;;;;;0.85;0.68;;;6.70;99.90;;;;;;5083258;28;20054;-71
2022/09/22 03:23:57;;;;;;;0.82;0.60;;;6.60;99.90;;;;;;5071837;28;20040;-71
2022/09/22 03:26:23;;;;;;;0.60;0.60;;;6.60;99.90;;;;;;5052912;28;20075;-71
2022/09/22 03:28:49;;;;;;;0.77;0.60;;;6.60;99.90;;;;;;5059022;28;20040;-71
2022/09/22 03:31:15;;;;;;;0.73;0.60;;;6.60;99.90;;;;;;5068868;28;20048;-71
2022/09/22 03:33:40;;;;;;;0.68;0.35;;;6.50;99.90;;;;;;5072522;28;20071;-71
2022/09/22 03:36:06;;;;;;;0.73;0.60;;;6.60;99.90;;;;;;5089111;28;20044;-71
2022/09/22 03:38:32;;;;;;;0.98;0.60;;;6.50;99.90;;;;;;5083555;28;20123;-71
2022/09/22 03:40:58;;;;;;;0.50;0.50;;;6.40;99.90;;;;;;5053814;28;20044;-72
2022/09/22 03:43:24;;;;;;;0.50;0.50;;;6.40;99.90;;;;;;5069868;28;20036;-72
2022/09/22 03:46:00;;;;;;;0.65;0.60;;;6.40;99.90;;;;;;5069408;28;20048;-72
2022/09/22 03:48:27;;;;;;;1.30;1.02;;;6.40;99.90;;;;;;5085679;28;20040;-72
2022/09/22 03:50:54;;;;;;;0.77;0.50;;;6.50;99.90;;;;;;5052820;28;20480;-72
2022/09/22 03:53:20;;;;;;;0.73;0.55;;;6.40;99.90;;;;;;5068807;28;20041;-72
2022/09/22 03:55:46;;;;;;;0.80;0.70;;;6.40;99.90;;;;;;5086841;28;20052;-72
2022/09/22 03:58:11;;;;;;;0.60;0.50;;;6.30;99.90;;;;;;5075871;28;20040;-72
2022/09/22 04:00:37;;;;;;;0.75;0.50;;;6.40;99.90;;;;;;5079865;28;20044;-72
2022/09/22 04:03:03;;;;;;;0.65;0.40;;;6.40;99.90;;;;;;5093959;28;20040;-73
2022/09/22 04:05:29;;;;;;;0.50;0.50;;;6.30;99.90;;;;;;5077140;28;20039;-72
2022/09/22 04:07:54;;;;;;;0.82;0.55;;;6.20;99.90;;;;;;5072153;28;20400;-72
2022/09/22 04:10:21;;;;;;;0.68;0.50;;;6.20;99.90;;;;;;5087920;28;20109;-72
2022/09/22 04:12:46;;;;;;;;;;;6.40;99.90;;;;;;5092056;28;20040;-72
2022/09/22 04:15:12;;;;;;;0.50;0.50;;;6.20;99.90;;;;;;5072221;28;19934;-72
2022/09/22 04:17:38;;;;;;;0.50;0.40;;;6.20;99.90;;;;;;5056992;28;20044;-72
2022/09/22 04:20:06;;;;;;;0.73;0.40;;;6.20;99.90;;;;;;5092500;28;20384;-72
2022/09/22 04:22:33;;;;;;;0.73;0.45;;;6.30;99.90;;;;;;5090427;28;21079;-72
2022/09/22 04:24:59;;;;;;;0.60;0.60;;;6.20;99.90;;;;;;5074069;28;20173;-72
2022/09/22 04:27:25;;;;;;;0.32;0.32;;;6.20;99.90;;;;;;5074744;28;20067;-72
2022/09/22 04:29:50;;;;;;;0.75;0.45;;;6.20;99.90;;;;;;5072701;28;20083;-72
2022/09/22 04:32:17;;;;;;;0.40;0.40;;;6.10;99.90;;;;;;5086389;28;20040;-72
2022/09/22 04:34:43;;;;;;;0.50;0.50;;;6.10;99.90;;;;;;5090436;28;20127;-72
2022/09/22 04:37:09;;;;;;;0.40;0.40;;;6.10;99.90;;;;;;5071008;28;20127;-72
2022/09/22 04:39:35;;;;;;;;;;;6.10;99.90;;;;;;5072384;28;20505;-72
2022/09/22 04:42:01;;;;;;;0.75;0.45;;;6.10;99.90;;;;;;5079778;28;20362;-72
2022/09/22 04:44:27;;;;;;;0.50;0.47;;;6.10;99.90;;;;;;5063507;28;20377;-72
2022/09/22 04:46:54;;;;;;;0.70;0.50;;;6.10;99.90;;;;;;5059539;28;20044;-72
2022/09/22 04:49:20;;;;;;;0.60;0.40;;;6.10;99.90;;;;;;5079058;28;20043;-72
2022/09/22 04:51:46;;;;;;;0.60;0.50;;;6.00;99.90;;;;;;5091923;28;20051;-72
2022/09/22 04:54:13;;;;;;;0.80;0.57;;;6.10;99.90;;;;;;5088859;28;20056;-72
2022/09/22 04:56:42;;;;;;;0.50;0.40;;;6.10;99.90;;;;;;5090735;28;20056;-72
2022/09/22 04:59:08;;;;;;;0.77;0.45;;;6.10;99.90;;;;;;5084791;28;20455;-72
2022/09/22 05:01:34;;;;;;;0.85;0.40;;;5.90;99.90;;;;;;5071292;28;20040;-72
2022/09/22 05:04:01;;;;;;;0.65;0.40;;;6.10;99.90;;;;;;5072214;28;20071;-72
2022/09/22 05:06:26;;;;;;;0.57;0.47;;;6.00;99.90;;;;;;5073772;28;20463;-72
2022/09/22 05:08:52;;;;;;;0.40;0.40;;;6.00;99.90;;;;;;5088517;28;20146;-72
2022/09/22 05:11:20;;;;;;;0.40;0.40;;;6.10;99.90;;;;;;5057694;28;20569;-73
2022/09/22 05:13:46;;;;;;;0.50;0.40;;;6.00;99.90;;;;;;5059923;28;20170;-72
2022/09/22 05:16:12;;;;;;;0.73;0.40;;;6.00;99.90;;;;;;5061417;28;20557;-72
2022/09/22 05:18:38;;;;;;;0.50;0.50;;;6.10;99.90;;;;;;5087952;28;20040;-72
2022/09/22 05:21:04;;;;;;;0.30;0.30;;;6.00;99.90;;;;;;5086362;28;20050;-73
2022/09/22 05:23:31;;;;;;;;;;;6.10;99.90;;;;;;5074932;28;20055;-72
2022/09/22 05:25:57;;;;;;;0.40;0.30;;;6.00;99.90;;;;;;5088736;28;20349;-73
2022/09/22 05:28:23;;;;;;;0.30;0.30;;;6.20;99.90;;;;;;5060067;28;20098;-74
2022/09/22 05:30:52;;;;;;;0.63;0.40;;;6.10;99.90;;;;;;5088782;28;20131;-72
2022/09/22 05:33:18;;;;;;;0.30;0.30;;;6.00;99.90;;;;;;5075365;28;20044;-74
2022/09/22 05:35:44;;;;;;;0.43;0.40;;;6.00;99.90;;;;;;5085095;28;20044;-74
2022/09/22 05:38:09;;;;;;;0.40;0.40;;;6.00;99.90;;;;;;5081669;28;20516;-73
2022/09/22 05:40:35;;;;;;;0.70;0.50;;;6.10;99.90;;;;;;5079822;28;20040;-73
2022/09/22 05:43:01;;;;;;;0.40;0.40;;;6.00;99.90;;;;;;5085631;28;20040;-72
2022/09/22 05:45:26;;;;;;;0.50;0.50;;;6.20;99.90;;;;;;5085460;28;20574;-73
2022/09/22 05:47:52;;;;;;;1.08;0.50;;;6.20;99.90;;;;;;5072096;28;20169;-73
2022/09/22 05:50:19;;;;;;;0.40;0.40;;;6.20;99.90;;;;;;5086365;28;20060;-73
2022/09/22 05:52:45;;;;;;;1.05;0.50;;;6.10;99.90;;;;;;5071907;28;20048;-74
2022/09/22 05:55:12;;;;;;;0.60;0.50;;;6.20;99.90;;;;;;5053336;28;20074;-73
2022/09/22 05:57:37;;;;;;;0.68;0.55;;;6.20;99.90;;;;;;5085172;28;20492;-73
2022/09/22 06:00:06;;;;;;;0.80;0.45;;;6.20;99.90;;;;;;5053296;28;20052;-72
2022/09/22 06:02:31;;;;;;;0.52;0.50;;;6.20;99.90;;;;;;5054780;28;20157;-72
2022/09/22 06:04:57;;;;;;;1.55;0.70;;;6.30;99.90;;;;;;5090473;28;20587;-72
2022/09/22 06:07:23;;;;;;;0.55;0.50;;;6.60;99.90;;;;;;5074229;28;20046;-71
2022/09/22 06:09:49;;;;;;;1.33;0.57;;;6.40;99.90;;;;;;5065012;28;20033;-70
2022/09/22 06:12:16;;;;;;;0.40;0.40;;;6.60;99.90;;;;;;5070642;28;20049;-71
2022/09/22 06:14:41;;;;;;;;;;;6.80;99.90;;;;;;5079849;28;20143;-71
2022/09/22 06:17:10;;;;;;;0.70;0.70;;;6.70;99.90;;;;;;5090871;28;20462;-71
2022/09/22 06:19:37;;;;;;;0.65;0.60;;;6.90;99.90;;;;;;5090264;28;20056;-71
2022/09/22 06:22:03;;;;;;;0.65;0.60;;;7.00;99.90;;;;;;5090556;28;20074;-71
2022/09/22 06:24:29;;;;;;;0.70;0.70;;;7.30;99.90;;;;;;5089566;28;20481;-71
2022/09/22 06:26:55;;;;;;;0.88;0.70;;;7.40;99.90;;;;;;5089023;28;20039;-71
2022/09/22 06:29:20;;;;;;;0.70;0.70;;;7.40;99.90;;;;;;5090236;28;20598;-71
2022/09/22 06:31:47;;;;;;;0.98;0.70;;;7.50;99.90;;;;;;5089910;28;20506;-73
2022/09/22 06:34:13;;;;;;;1.00;0.90;;;7.60;99.90;;;;;;5089722;28;20113;-72
2022/09/22 06:36:44;;;;;;;0.80;0.70;;;7.90;99.90;;;;;;5056316;28;20083;-71
2022/09/22 06:39:10;;;;;;;1.10;1.00;;;7.80;99.90;;;;;;5090062;28;20047;-72
2022/09/22 06:41:36;;;;;;;;;;;7.90;99.90;;;;;;5090350;28;20036;-72
2022/09/22 06:44:02;;;;;;;0.95;0.70;;;8.00;99.90;;;;;;5091147;28;20297;-72
2022/09/22 06:46:32;;;;;;;1.00;0.75;;;8.30;99.90;;;;;;5072767;28;20040;-71
2022/09/22 06:48:59;;;;;;;0.60;0.60;;;8.20;99.90;;;;;;5089669;28;20118;-71
2022/09/22 06:51:31;;;;;;;0.70;0.70;;;8.30;99.90;;;;;;5089778;28;20161;-71
2022/09/22 06:53:58;;;;;;;0.63;0.63;;;8.40;99.90;;;;;;5089568;28;20096;-71
2022/09/22 06:56:26;;;;;;;0.80;0.75;;;8.80;99.90;;;;;;5089436;28;20044;-71
2022/09/22 06:58:53;;;;;;;0.77;0.75;;;9.10;99.90;;;;;;5089347;28;20059;-71
2022/09/22 07:01:18;;;;;;;;;;;9.40;99.90;;;;;;5073189;28;20071;-71
2022/09/22 07:03:45;;;;;;;2.55;1.23;;;9.80;99.90;;;;;;5089735;28;19982;-71
2022/09/22 07:06:15;;;;;;;;;;;10.10;99.90;;;;;;5089840;28;20463;-71
2022/09/22 07:08:41;;;;;;;1.63;1.17;;;10.50;99.90;;;;;;5089619;28;19919;-71
2022/09/22 07:11:09;;;;;;;2.20;1.45;;;10.90;99.90;;;;;;5072439;28;20065;-71
2022/09/22 07:13:38;;;;;;;1.33;1.00;;;11.40;99.90;;;;;;5089432;28;20052;-71
2022/09/22 07:16:10;;;;;;;1.40;1.30;;;11.80;99.90;;;;;;5090581;28;20063;-71
2022/09/22 07:18:40;;;;;;;2.22;1.50;;;12.10;99.90;;;;;;5072692;28;20055;-71
2022/09/22 07:21:31;;;;;;;1.45;1.33;;;12.40;99.90;;;;;;5089166;28;20126;-72
2022/09/22 07:23:57;;;;;;;1.50;1.33;;;12.60;99.90;;;;;;5089183;28;20113;-71
2022/09/22 07:26:29;;;;;;;2.50;1.60;;;13.00;99.90;;;;;;5089256;28;20044;-71
2022/09/22 07:28:58;;;;;;;3.00;1.88;;;13.20;99.90;;;;;;5075448;28;20060;-71
2022/09/22 07:31:26;;;;;;;2.17;1.60;;;13.40;99.90;;;;;;5093443;28;20047;-71
2022/09/22 07:33:52;;;;;;;2.33;1.60;;;13.50;99.90;;;;;;5093823;28;20489;-71
2022/09/22 07:36:21;;;;;;;1.77;1.40;;;13.60;99.90;;;;;;5093423;28;20043;-71
2022/09/22 07:38:49;;;;;;;1.98;1.25;;;13.70;99.90;;;;;;5093178;28;20507;-71
2022/09/22 07:41:18;;;;;;;3.17;1.45;;;13.70;99.90;;;;;;5093249;28;20051;-71
2022/09/22 07:43:44;;;;;;;2.15;1.40;;;13.70;99.90;;;;;;5093267;28;20054;-72
2022/09/22 07:46:12;;;;;;;1.58;1.20;;;13.80;99.90;;;;;;5093033;28;20036;-72
2022/09/22 07:48:47;;;;;;;1.25;1.10;;;13.90;99.90;;;;;;5093105;28;20056;-72
2022/09/22 07:51:20;;;;;;;2.15;1.58;;;13.90;99.90;;;;;;5060783;28;20376;-72
2022/09/22 07:54:17;;;;;;;2.20;1.60;;;14.00;99.90;;;;;;5092669;28;20056;-72
2022/09/22 07:56:43;;;;;;;2.25;1.35;;;14.10;99.90;;;;;;5092313;28;20051;-72
2022/09/22 07:59:11;;;;;;;1.80;1.58;;;14.10;99.90;;;;;;5092480;28;20097;-72
2022/09/22 08:01:40;;;;;;;2.53;1.33;;;14.30;99.90;;;;;;5093987;28;20052;-72
2022/09/22 08:04:06;;;;;;;2.78;1.60;;;14.50;99.90;;;;;;5092546;28;20145;-72
2022/09/22 08:06:33;;;;;;;2.25;1.35;;;14.70;99.90;;;;;;5092744;28;20126;-71
2022/09/22 08:09:03;;;;;;;3.13;1.58;;;14.80;99.90;;;;;;5092821;28;20043;-72
2022/09/22 08:11:30;;;;;;;1.63;1.27;;;15.00;99.90;;;;;;5075591;28;20051;-72
2022/09/22 08:13:58;;;;;;;1.58;1.10;;;15.00;99.90;;;;;;5092410;28;20098;-72
2022/09/22 08:16:27;;;;;;;1.90;1.10;;;15.10;99.90;;;;;;5092523;28;20132;-72
2022/09/22 08:18:55;;;;;;;2.33;1.23;;;15.10;99.90;;;;;;5092636;28;20382;-72
2022/09/22 08:21:25;;;;;;;1.95;1.40;;;15.30;99.90;;;;;;5092305;28;20349;-70
2022/09/22 08:23:51;;;;;;;1.90;1.13;;;15.30;99.90;;;;;;5076359;28;20048;-70
2022/09/22 08:26:18;;;;;;;2.08;1.00;;;15.40;99.90;;;;;;5075723;28;20047;-71
2022/09/22 08:28:45;;;;;;;1.17;0.98;;;15.50;99.90;;;;;;5092587;28;20398;-71
2022/09/22 08:31:13;;;;;;;3.05;1.20;;;15.70;99.90;;;;;;5092039;28;20413;-71
2022/09/22 08:33:40;;;;;;;2.17;1.10;;;15.70;99.90;;;;;;5075571;28;20048;-71
2022/09/22 08:36:06;;;;;;;1.35;0.93;;;15.80;99.90;;;;;;5075085;28;20127;-71
2022/09/22 08:38:32;;;;;;;;;;;15.80;99.90;;;;;;5092244;28;20068;-71
2022/09/22 08:41:17;;;;;;;1.65;1.00;;;15.80;99.90;;;;;;5091138;28;19961;-72
2022/09/22 08:43:56;;;;;;;2.13;1.30;;;15.80;99.90;;;;;;5091977;28;20490;-72
2022/09/22 08:46:31;;;;;;;1.40;0.88;;;15.70;99.90;;;;;;5092316;28;20048;-72
2022/09/22 08:52:43;;;;;;;2.13;1.15;;;15.60;99.90;;;;;;5086819;28;20387;-72
2022/09/22 08:55:20;;;;;;;1.02;0.93;;;15.50;99.90;;;;;;5091596;28;20094;-72
2022/09/22 08:58:06;;;;;;;1.23;0.90;;;15.50;99.90;;;;;;5091752;28;20075;-72
2022/09/22 09:00:46;;;;;;;1.27;0.98;;;15.50;99.90;;;;;;5092075;28;20048;-72
2022/09/22 09:03:23;;;;;;;2.30;1.33;;;15.50;99.90;;;;;;5091797;28;20120;-72
2022/09/22 09:06:14;;;;;;;1.83;1.02;;;15.50;99.90;;;;;;5091419;28;20052;-72
2022/09/22 09:08:40;;;;;;;2.03;1.20;;;15.50;99.90;;;;;;5091714;28;20437;-72
2022/09/22 09:11:20;;;;;;;1.48;1.00;;;15.60;99.90;;;;;;5091525;28;20051;-72
2022/09/22 09:14:22;;;;;;;1.30;0.70;;;15.60;99.90;;;;;;5091367;28;20396;-72
2022/09/22 09:17:07;;;;;;;1.92;0.80;;;15.60;99.90;;;;;;5074256;28;20036;-72
2022/09/22 09:19:39;;;;;;;1.02;0.70;;;15.50;99.90;;;;;;5074421;28;20044;-78
2022/09/22 09:22:23;;;;;;;1.30;0.60;;;15.50;99.90;;;;;;5091324;28;20042;-77
2022/09/22 09:24:55;;;;;;;1.13;0.65;;;15.60;99.90;;;;;;5092455;28;20043;-78
2022/09/22 09:27:29;;;;;;;0.70;0.68;;;15.60;99.90;;;;;;5074533;28;20036;-77
2022/09/22 09:30:10;;;;;;;1.00;0.50;;;15.60;99.90;;;;;;5091086;28;20048;-77
2022/09/22 09:32:47;;;;;;;1.58;0.80;;;15.70;99.90;;;;;;5091109;28;20543;-77
2022/09/22 09:35:15;;;;;;;1.15;0.80;;;15.70;99.90;;;;;;5074495;28;20054;-79
2022/09/22 09:37:46;;;;;;;1.30;0.80;;;15.70;99.90;;;;;;5090785;28;20048;-77
2022/09/22 09:40:16;;;;;;;0.57;0.57;;;15.70;99.90;;;;;;5092153;28;20036;-78
2022/09/22 09:42:46;;;;;;;1.13;0.60;;;15.60;99.90;;;;;;5091051;28;20044;-78
2022/09/22 09:45:16;;;;;;;0.68;0.60;;;15.60;99.90;;;;;;5090978;28;20121;-78
2022/09/22 09:47:52;;;;;;;1.00;0.70;;;15.70;99.90;;;;;;5090700;28;20051;-77
2022/09/22 09:50:17;;;;;;;1.25;0.70;;;15.70;99.90;;;;;;5092137;28;20044;-78
2022/09/22 09:52:44;;;;;;;1.30;0.60;;;15.80;99.90;;;;;;5091051;28;20044;-77
2022/09/22 09:55:27;;;;;;;1.35;0.60;;;15.70;99.90;;;;;;5090402;28;20087;-78
2022/09/22 10:00:29;;;;;;;1.60;0.70;;;15.80;99.90;;;;;;5090602;28;20127;-78
2022/09/22 10:00:59;;;;;;;0.95;0.75;;;15.90;99.90;;;;;;5090961;28;20048;-78
2022/09/22 10:03:31;;;;;;;1.13;0.70;;;16.00;99.90;;;;;;5090344;28;20043;-78
2022/09/22 10:06:05;;;;;;;1.00;0.50;;;16.00;99.90;;;;;;5073474;28;20048;-78
2022/09/22 10:08:35;;;;;;;1.13;0.52;;;16.10;99.90;;;;;;5090270;28;20450;-78
2022/09/22 10:11:02;;;;;;;0.75;0.50;;;16.10;99.90;;;;;;5090734;28;20098;-78
2022/09/22 10:13:38;;;;;;;0.47;0.43;;;16.30;99.90;;;;;;5073497;28;20127;-77
2022/09/22 10:16:27;;;;;;;0.95;0.45;;;16.40;99.90;;;;;;5090160;28;20051;-78
2022/09/22 10:19:16;;;;;;;1.02;0.70;;;16.40;99.80;;;;;;5090880;28;20506;-77
2022/09/22 10:21:41;;;;;;;1.38;0.95;;;16.50;97.80;;;;;;5091467;28;20548;-78
2022/09/22 10:24:27;;;;;;;1.38;0.95;;;16.70;98.70;;;;;;5090251;28;20044;-78
2022/09/22 10:26:56;;;;;;;1.48;0.95;;;16.80;99.00;;;;;;5090000;28;20143;-77
2022/09/22 10:29:22;;;;;;;1.60;1.10;;;17.10;99.00;;;;;;5073035;28;20046;-77
2022/09/22 10:32:03;;;;;;;1.13;0.80;;;17.30;99.90;;;;;;5090076;28;20048;-77
2022/09/22 10:34:39;;;;;;;0.52;0.50;;;17.50;98.60;;;;;;5090032;28;20056;-78
2022/09/22 10:37:09;;;;;;;2.38;1.20;;;17.80;98.20;;;;;;5089880;28;20048;-78
2022/09/22 10:39:48;;;;;;;0.85;0.80;;;18.00;97.30;;;;;;5089650;28;20122;-77
2022/09/22 10:42:36;;;;;;;1.65;0.70;;;18.10;96.10;;;;;;5089776;28;20036;-77
2022/09/22 10:45:06;;;;;;;1.40;0.70;;;18.40;97.60;;;;;;5089602;28;20048;-77
2022/09/22 10:47:40;;;;;;;0.95;0.63;;;18.60;97.10;;;;;;5089592;28;20047;-77
2022/09/22 10:50:33;;;;;;;2.15;0.85;;;18.70;96.80;;;;;;5090085;28;20473;-77
2022/09/22 10:53:09;;;;;;;1.63;0.80;;;18.70;96.20;;;;;;5089437;28;20047;-77
2022/09/22 10:55:47;;;;;;;1.48;0.90;;;18.80;97.20;;;;;;5089414;28;20121;-77
2022/09/22 10:58:45;;;;;;;1.35;0.88;;;18.50;93.90;;;;;;5090887;28;20401;-77
2022/09/22 11:01:53;;;;;;;1.65;0.93;;;18.40;95.90;;;;;;5088925;28;20044;-78
2022/09/22 11:04:33;;;;;;;1.25;0.70;;;18.50;94.80;;;;;;5089075;28;20040;-77
2022/09/22 11:13:43;;;;;;;1.85;0.80;;;19.20;95.20;;;;;;5081745;28;20056;-77
2022/09/22 11:16:26;;;;;;;1.55;0.70;;;19.40;94.60;;;;;;5082925;28;20101;-77
2022/09/22 11:19:26;;;;;;;1.75;0.70;;;19.40;93.60;;;;;;5080098;28;20048;-78
2022/09/22 11:22:23;;;;;;;1.20;0.60;;;19.70;94.00;;;;;;5070411;28;20116;-78
2022/09/22 11:25:20;;;;;;;1.35;0.32;;;19.80;94.20;;;;;;5038288;28;20076;-78
2022/09/22 11:27:54;;;;;;;1.03;0.60;;;20.10;94.10;;;;;;5068918;28;20060;-77
2022/09/22 11:30:21;;;;;;;0.88;0.47;;;19.80;93.20;;;;;;5052473;28;20287;-77
2022/09/22 11:33:27;;;;;;;1.58;0.70;;;19.40;92.90;;;;;;5069413;28;20380;-77
2022/09/22 11:36:04;;;;;;;0.82;0.50;;;19.20;94.80;;;;;;5068617;28;20048;-78
2022/09/22 11:38:48;;;;;;;1.02;0.70;;;19.50;93.90;;;;;;5078214;28;20036;-77
2022/09/22 11:41:36;;;;;;;1.60;0.65;;;19.50;93.20;;;;;;5071458;28;20495;-77
2022/09/22 11:44:17;;;;;;;0.63;0.40;;;19.90;94.10;;;;;;5089326;28;20032;-72
2022/09/22 11:46:59;;;;;;;1.40;0.60;;;20.10;92.80;;;;;;5088615;28;20043;-75
2022/09/22 11:49:46;;;;;;;2.10;0.82;;;20.10;94.70;;;;;;5090116;28;20093;-75
2022/09/22 11:52:24;;;;;;;;;;;19.80;92.70;;;;;;5072372;28;20044;-74
2022/09/22 11:55:00;;;;;;;0.68;0.60;;;19.50;93.30;;;;;;5088509;28;19931;-74
2022/09/22 11:57:32;;;;;;;0.52;0.47;;;19.00;93.60;;;;;;5072022;28;20131;-74
2022/09/22 12:00:01;;;;;;;0.80;0.50;;;18.80;94.00;;;;;;5088670;28;20123;-75
2022/09/22 12:02:34;;;;;;;1.17;1.05;;;18.70;94.80;;;;;;5088944;28;20036;-75
2022/09/22 12:05:16;;;;;;;1.95;1.25;;;18.50;95.90;;;;;;5089072;28;20055;-75
2022/09/22 12:08:16;;;;;;;1.67;0.90;;;18.30;94.60;;;;;;5088676;28;20486;-75
2022/09/22 12:10:44;;;;;;;1.20;0.95;;;18.20;94.30;;;;;;5077887;28;20079;-76
2022/09/22 12:13:11;;;;;;;1.27;1.00;;;18.00;93.80;;;;;;5084722;28;20036;-75
2022/09/22 12:15:57;;;;;;;1.80;0.80;;;17.90;94.60;;;;;;5091104;28;20139;-75
2022/09/22 12:18:41;;;;;;;1.27;0.90;;;17.70;94.50;;;;;;5086865;28;20044;-75
2022/09/22 12:21:28;;;;;;;0.98;0.82;;;18.00;95.00;;;;;;5081686;28;20421;-75
2022/09/22 12:23:56;;;;;;;1.33;1.00;;;18.40;94.80;;;;;;5071822;28;20147;-73
2022/09/22 12:26:30;;;;;;;1.45;1.08;;;18.50;94.50;;;;;;5079072;28;20032;-73
2022/09/22 12:28:58;;;;;;;1.52;0.98;;;18.60;94.60;;;;;;5101748;28;20043;-73
2022/09/22 12:31:40;;;;;;;1.55;1.00;;;18.90;94.70;;;;;;5112798;28;20054;-73
2022/09/22 12:34:18;;;;;;;1.27;1.08;;;19.30;94.20;;;;;;5095508;28;20048;-73
2022/09/22 12:36:46;;;;;;;1.27;0.90;;;19.40;93.60;;;;;;5095545;28;20506;-73
2022/09/22 12:39:18;;;;;;;0.88;0.80;;;19.10;93.50;;;;;;5094725;28;20113;-73
2022/09/22 12:41:47;;;;;;;1.38;0.85;;;18.90;93.90;;;;;;5081409;28;20044;-73
2022/09/22 12:44:18;;;;;;;1.40;0.80;;;18.50;93.70;;;;;;5101042;28;20067;-72
2022/09/22 12:46:44;;;;;;;1.52;0.80;;;18.40;94.30;;;;;;5097931;28;20040;-73
2022/09/22 12:49:17;;;;;;;1.38;0.70;;;18.50;94.30;;;;;;5101478;28;20046;-73
2022/09/22 12:51:42;;;;;;;0.57;0.55;;;18.80;94.40;;;;;;5106192;28;20039;-74
2022/09/22 12:54:20;;;;;;;;;;;19.40;94.90;;;;;;5112368;28;20139;-72
2022/09/22 12:56:53;;;;;;;1.25;0.70;;;19.70;94.80;;;;;;5111695;28;19927;-73
2022/09/22 12:59:37;;;;;;;1.00;0.73;;;20.00;93.80;;;;;;5111935;28;20043;-72
2022/09/22 13:02:26;;;;;;;1.52;0.93;;;20.20;95.10;;;;;;5112258;28;20050;-75
2022/09/22 13:04:54;;;;;;;1.60;0.90;;;20.20;92.80;;;;;;5112042;28;20368;-75
2022/09/22 13:07:39;;;;;;;1.50;0.77;;;20.40;92.40;;;;;;5111801;28;20550;-75
2022/09/22 13:10:20;;;;;;;1.10;0.90;;;20.60;92.40;;;;;;5101515;28;20040;-75
2022/09/22 13:13:01;;;;;;;1.15;0.75;;;20.60;92.60;;;;;;5101929;28;20055;-74
2022/09/22 13:15:34;;;;;;;2.58;0.80;;;20.20;92.00;;;;;;5071986;28;20051;-74
2022/09/22 13:18:00;;;;;;;0.90;0.50;;;19.90;92.70;;;;;;5061856;28;20059;-74
2022/09/22 13:20:33;;;;;;;;;;;19.80;92.80;;;;;;5086504;28;20484;-74
2022/09/22 13:23:10;;;;;;;1.40;0.60;;;19.80;93.30;;;;;;5090948;28;19919;-74
2022/09/22 13:25:37;;;;;;;0.80;0.60;;;20.10;92.90;;;;;;5090542;28;20131;-75
2022/09/22 13:28:16;;;;;;;0.77;0.50;;;20.30;92.70;;;;;;5091189;28;20063;-76
2022/09/22 13:30:44;;;;;;;2.38;1.00;;;20.50;92.40;;;;;;5091131;28;20056;-76
2022/09/22 13:33:22;;;;;;;2.38;1.13;;;20.50;92.10;;;;;;5090948;28;20492;-74